Time,TemperatureF,DewpointF,PressureIn,WindDirection,WindDirectionDegrees,WindSpeedMPH,WindSpeedGustMPH,Humidity,HourlyPrecipIn,Conditions,Clouds,dailyrainin,SoftwareType,DateUTC
2017-04-27 00:04:00,64.0,60.1,28.30,SSW,202,0.0,-999.0,87,-99.99,,,0.00,,2017-04-27 04:04:00,
2017-04-27 00:20:00,62.6,59.3,28.30,WSW,247,0.0,-999.0,89,-99.99,,,0.00,,2017-04-27 04:20:00,
2017-04-27 00:35:00,60.8,58.8,28.30,West,270,0.0,-999.0,93,-99.99,,,0.00,,2017-04-27 04:35:00,
2017-04-27 00:50:00,59.5,58.1,28.30,SSW,202,0.0,-999.0,95,-99.99,,,0.00,,2017-04-27 04:50:00,
2017-04-27 01:06:00,60.1,59.2,28.31,WSW,247,0.0,-999.0,97,-99.99,,,0.00,,2017-04-27 05:06:00,
2017-04-27 01:21:00,60.6,58.6,28.30,SSW,202,0.0,-999.0,93,-99.99,,,0.00,,2017-04-27 05:21:00,
2017-04-27 01:37:00,59.9,58.5,28.30,SE,135,0.0,-999.0,95,-99.99,,,0.00,,2017-04-27 05:37:00,
2017-04-27 01:52:00,60.6,59.2,28.30,ESE,112,0.0,-999.0,95,-99.99,,,0.00,,2017-04-27 05:52:00,
2017-04-27 02:08:00,60.8,59.1,28.30,SE,135,0.0,-999.0,94,-99.99,,,0.00,,2017-04-27 06:08:00,
2017-04-27 02:23:00,60.6,58.9,28.30,SSE,157,0.0,-999.0,94,-99.99,,,0.00,,2017-04-27 06:23:00,
2017-04-27 02:38:00,60.6,58.9,28.30,ESE,112,0.0,-999.0,94,-99.99,,,0.00,,2017-04-27 06:38:00,
2017-04-27 02:54:00,60.1,58.7,28.30,ESE,112,0.0,-999.0,95,-99.99,,,0.00,,2017-04-27 06:54:00,
2017-04-27 03:09:00,59.9,58.8,28.30,SSW,202,0.0,-999.0,96,-99.99,,,0.00,,2017-04-27 07:09:00,
2017-04-27 03:25:00,59.4,58.3,28.30,SSE,157,0.0,-999.0,96,-99.99,,,0.00,,2017-04-27 07:25:00,
2017-04-27 03:40:00,59.2,58.3,28.30,SE,135,0.0,-999.0,97,-99.99,,,0.00,,2017-04-27 07:40:00,
2017-04-27 03:55:00,59.2,58.6,28.29,SE,135,0.0,-999.0,98,-99.99,,,0.00,,2017-04-27 07:55:00,
2017-04-27 04:11:00,58.8,58.5,28.29,SSE,157,0.0,-999.0,99,-99.99,,,0.00,,2017-04-27 08:11:00,
2017-04-27 04:26:00,58.5,58.2,28.29,SE,135,0.0,-999.0,99,-99.99,,,0.00,,2017-04-27 08:26:00,
2017-04-27 04:42:00,58.3,58.0,28.28,SSE,157,0.0,-999.0,99,-99.99,,,0.00,,2017-04-27 08:42:00,
2017-04-27 04:57:00,58.3,58.0,28.29,SE,135,0.0,-999.0,99,-99.99,,,0.00,,2017-04-27 08:57:00,
2017-04-27 05:12:00,58.8,58.5,28.29,SSE,157,0.0,-999.0,99,-99.99,,,0.00,,2017-04-27 09:12:00,
2017-04-27 05:28:00,58.8,58.5,28.29,SSW,202,0.0,-999.0,99,-99.99,,,0.00,,2017-04-27 09:28:00,
2017-04-27 05:43:00,58.5,58.2,28.29,South,180,0.0,-999.0,99,-99.99,,,0.00,,2017-04-27 09:43:00,
2017-04-27 05:59:00,57.6,57.3,28.30,SSE,157,0.0,-999.0,99,-99.99,,,0.12,,2017-04-27 09:59:00,
2017-04-27 06:14:00,57.4,57.1,28.30,SE,135,0.0,-999.0,99,-99.99,,,0.12,,2017-04-27 10:14:00,
2017-04-27 06:30:00,56.8,56.5,28.30,SSE,157,0.0,-999.0,99,-99.99,,,0.12,,2017-04-27 10:30:00,
2017-04-27 06:45:00,57.2,56.9,28.30,SSE,157,0.0,-999.0,99,-99.99,,,0.12,,2017-04-27 10:45:00,
2017-04-27 07:00:00,58.6,58.3,28.30,SSW,202,0.0,-999.0,99,-99.99,,,0.12,,2017-04-27 11:00:00,
2017-04-27 07:16:00,59.9,59.6,28.30,ESE,112,0.0,-999.0,99,-99.99,,,0.12,,2017-04-27 11:16:00,
2017-04-27 07:31:00,61.0,60.1,28.30,ESE,112,0.0,-999.0,97,-99.99,,,0.12,,2017-04-27 11:31:00,
2017-04-27 07:47:00,61.9,60.7,28.30,SSE,157,0.0,-999.0,96,-99.99,,,0.12,,2017-04-27 11:47:00,
2017-04-27 08:02:00,62.4,61.2,28.29,South,180,0.0,-999.0,96,-99.99,,,0.12,,2017-04-27 12:02:00,
2017-04-27 08:17:00,63.1,61.9,28.29,SE,135,0.0,-999.0,96,-99.99,,,0.12,,2017-04-27 12:17:00,
2017-04-27 08:33:00,63.9,62.1,28.30,SE,135,0.0,-999.0,94,-99.99,,,0.12,,2017-04-27 12:33:00,
2017-04-27 08:48:00,65.1,62.7,28.30,SSE,157,0.0,-999.0,92,-99.99,,,0.12,,2017-04-27 12:48:00,
2017-04-27 09:04:00,66.4,63.4,28.30,SE,135,0.0,-999.0,90,-99.99,,,0.12,,2017-04-27 13:04:00,
2017-04-27 09:19:00,67.6,63.9,28.30,SSE,157,0.0,-999.0,88,-99.99,,,0.12,,2017-04-27 13:19:00,
2017-04-27 09:35:00,68.9,64.9,28.29,ESE,112,0.0,-999.0,87,-99.99,,,0.12,,2017-04-27 13:35:00,
2017-04-27 09:50:00,69.8,65.1,28.29,SE,135,0.0,-999.0,85,-99.99,,,0.12,,2017-04-27 13:50:00,
2017-04-27 10:05:00,71.1,66.0,28.29,SSE,157,0.0,-999.0,84,-99.99,,,0.12,,2017-04-27 14:05:00,
2017-04-27 10:21:00,72.0,66.9,28.29,SSW,202,0.0,-999.0,84,-99.99,,,0.12,,2017-04-27 14:21:00,
2017-04-27 10:36:00,72.9,66.7,28.29,ESE,112,0.0,-999.0,81,-99.99,,,0.12,,2017-04-27 14:36:00,
2017-04-27 10:52:00,73.0,67.2,28.29,ESE,112,0.0,-999.0,82,-99.99,,,0.12,,2017-04-27 14:52:00,
2017-04-27 11:07:00,73.4,67.2,28.29,SE,135,0.0,-999.0,81,-99.99,,,0.12,,2017-04-27 15:07:00,
2017-04-27 11:22:00,74.8,67.9,28.30,SSW,202,0.0,-999.0,79,-99.99,,,0.12,,2017-04-27 15:22:00,
2017-04-27 11:38:00,75.7,66.8,28.30,SSE,157,0.0,-999.0,74,-99.99,,,0.12,,2017-04-27 15:38:00,
2017-04-27 11:53:00,76.6,68.5,28.29,ESE,112,0.0,-999.0,76,-99.99,,,0.12,,2017-04-27 15:53:00,
2017-04-27 12:09:00,77.7,68.4,28.28,South,180,0.0,-999.0,73,-99.99,,,0.12,,2017-04-27 16:09:00,
2017-04-27 12:24:00,78.1,67.1,28.27,SE,135,0.0,-999.0,69,-99.99,,,0.12,,2017-04-27 16:24:00,
2017-04-27 12:40:00,78.6,67.2,28.26,SE,135,0.0,-999.0,68,-99.99,,,0.12,,2017-04-27 16:40:00,
2017-04-27 12:55:00,79.5,68.0,28.25,SE,135,0.0,-999.0,68,-99.99,,,0.12,,2017-04-27 16:55:00,
2017-04-27 13:10:00,79.7,71.1,28.25,ESE,112,0.0,-999.0,75,-99.99,,,0.12,,2017-04-27 17:10:00,
2017-04-27 13:26:00,79.2,69.8,28.24,ESE,112,0.0,-999.0,73,-99.99,,,0.12,,2017-04-27 17:26:00,
2017-04-27 13:41:00,79.5,70.5,28.22,SSE,157,0.0,-999.0,74,-99.99,,,0.12,,2017-04-27 17:41:00,
2017-04-27 13:57:00,81.0,69.0,28.23,SE,135,0.0,-999.0,67,-99.99,,,0.12,,2017-04-27 17:57:00,
2017-04-27 14:12:00,80.8,70.5,28.22,SE,135,0.0,-999.0,71,-99.99,,,0.12,,2017-04-27 18:12:00,
2017-04-27 14:27:00,81.0,69.0,28.21,SE,135,0.0,-999.0,67,-99.99,,,0.12,,2017-04-27 18:27:00,
2017-04-27 14:43:00,79.5,69.3,28.21,ESE,112,0.0,-999.0,71,-99.99,,,0.12,,2017-04-27 18:43:00,
2017-04-27 14:58:00,78.4,68.6,28.20,SE,135,0.0,-999.0,72,-99.99,,,0.12,,2017-04-27 18:58:00,
2017-04-27 15:14:00,76.6,67.7,28.20,ESE,112,0.0,-999.0,74,-99.99,,,0.12,,2017-04-27 19:14:00,
2017-04-27 15:29:00,77.5,68.2,28.19,ESE,112,0.0,-999.0,73,-99.99,,,0.12,,2017-04-27 19:29:00,
2017-04-27 15:45:00,77.5,68.2,28.18,ESE,112,0.0,-999.0,73,-99.99,,,0.12,,2017-04-27 19:45:00,
2017-04-27 16:00:00,76.6,67.7,28.18,ESE,112,0.0,-999.0,74,-99.99,,,0.12,,2017-04-27 20:00:00,
2017-04-27 16:15:00,76.8,68.3,28.19,SE,135,0.0,-999.0,75,-99.99,,,0.12,,2017-04-27 20:15:00,
2017-04-27 16:31:00,76.1,67.2,28.19,ESE,112,0.0,-999.0,74,-99.99,,,0.12,,2017-04-27 20:31:00,
2017-04-27 16:46:00,75.2,66.3,28.18,SE,135,0.0,-999.0,74,-99.99,,,0.12,,2017-04-27 20:46:00,
2017-04-27 17:02:00,74.7,66.2,28.18,SE,135,0.0,-999.0,75,-99.99,,,0.12,,2017-04-27 21:02:00,
2017-04-27 17:17:00,75.0,63.7,28.18,SSE,157,0.0,-999.0,68,-99.99,,,0.12,,2017-04-27 21:17:00,
2017-04-27 17:32:00,76.1,65.6,28.18,SE,135,0.0,-999.0,70,-99.99,,,0.12,,2017-04-27 21:32:00,
2017-04-27 17:48:00,75.4,64.5,28.17,SE,135,0.0,-999.0,69,-99.99,,,0.12,,2017-04-27 21:48:00,
2017-04-27 18:03:00,76.1,66.4,28.17,SSE,157,0.0,-999.0,72,-99.99,,,0.12,,2017-04-27 22:03:00,
2017-04-27 18:19:00,74.1,65.3,28.17,ESE,112,0.0,-999.0,74,-99.99,,,0.12,,2017-04-27 22:19:00,
2017-04-27 18:34:00,73.8,65.4,28.17,SE,135,0.0,-999.0,75,-99.99,,,0.12,,2017-04-27 22:34:00,
2017-04-27 18:50:00,73.2,65.2,28.17,SE,135,0.0,-999.0,76,-99.99,,,0.12,,2017-04-27 22:50:00,
2017-04-27 19:05:00,72.5,65.2,28.18,SSE,157,0.0,-999.0,78,-99.99,,,0.12,,2017-04-27 23:05:00,
2017-04-27 19:20:00,73.6,62.8,28.19,SSW,202,1.1,-999.0,69,-99.99,,,0.12,,2017-04-27 23:20:00,
2017-04-27 19:36:00,68.9,63.2,28.21,West,270,1.1,-999.0,82,-99.99,,,0.12,,2017-04-27 23:36:00,
2017-04-27 19:52:00,66.7,63.0,28.23,West,270,2.2,-999.0,88,-99.99,,,0.12,,2017-04-27 23:52:00,
2017-04-27 20:07:00,65.7,63.9,28.24,WSW,247,1.1,-999.0,94,-99.99,,,0.12,,2017-04-28 00:07:00,
2017-04-27 20:22:00,62.2,61.9,28.25,NW,315,1.7,-999.0,99,-99.99,,,0.15,,2017-04-28 00:22:00,
2017-04-27 20:38:00,61.7,61.4,28.26,West,270,1.1,-999.0,99,-99.99,,,0.15,,2017-04-28 00:38:00,
2017-04-27 20:53:00,61.7,61.4,28.27,West,270,4.7,-999.0,99,-99.99,,,0.15,,2017-04-28 00:53:00,
2017-04-27 21:09:00,61.0,60.7,28.27,NNE,22,2.7,-999.0,99,-99.99,,,0.15,,2017-04-28 01:09:00,
2017-04-27 21:25:00,60.6,60.3,28.28,West,270,0.0,-999.0,99,-99.99,,,0.15,,2017-04-28 01:25:00,
2017-04-27 21:40:00,59.9,59.6,28.29,NW,315,5.8,-999.0,99,-99.99,,,0.15,,2017-04-28 01:40:00,
2017-04-27 21:56:00,59.0,58.7,28.29,West,270,0.0,-999.0,99,-99.99,,,0.17,,2017-04-28 01:56:00,
2017-04-27 22:11:00,58.3,58.0,28.34,SW,225,0.0,-999.0,99,-99.99,,,0.40,,2017-04-28 02:11:00,